sensor_id;sensor_type;location;lat;lon;timestamp;pressure;altitude;pressure_sealevel;temperature;humidity
10099;BME280;5089;42.656;23.374;2023-03-20T00:00:42;95151.19;;;9.82;49.72
10099;BME280;5089;42.656;23.374;2023-03-20T00:03:11;95109.59;;;9.43;50.00
10099;BME280;5089;42.656;23.374;2023-03-20T00:05:39;95143.09;;;9.77;49.90
10099;BME280;5089;42.656;23.374;2023-03-20T00:08:06;95130.19;;;9.69;49.95
10099;BME280;5089;42.656;23.374;2023-03-20T00:10:35;95067.19;;;9.35;49.44
10099;BME280;5089;42.656;23.374;2023-03-20T00:13:04;94995.50;;;8.83;49.84
10099;BME280;5089;42.656;23.374;2023-03-20T00:15:34;95138.78;;;9.71;50.01
10099;BME280;5089;42.656;23.374;2023-03-20T00:18:02;95136.38;;;9.70;50.08
10099;BME280;5089;42.656;23.374;2023-03-20T00:20:31;95111.59;;;9.58;50.47
10099;BME280;5089;42.656;23.374;2023-03-20T00:22:57;95124.16;;;9.52;50.36
10099;BME280;5089;42.656;23.374;2023-03-20T00:25:25;95130.94;;;9.65;50.72
10099;BME280;5089;42.656;23.374;2023-03-20T00:27:52;95122.59;;;9.56;50.73
10099;BME280;5089;42.656;23.374;2023-03-20T00:30:24;95139.19;;;9.48;50.85
10099;BME280;5089;42.656;23.374;2023-03-20T00:32:53;95126.56;;;9.49;50.94
10099;BME280;5089;42.656;23.374;2023-03-20T00:35:24;95120.13;;;9.50;51.18
10099;BME280;5089;42.656;23.374;2023-03-20T00:37:54;95117.19;;;9.51;51.24
10099;BME280;5089;42.656;23.374;2023-03-20T00:40:23;95130.28;;;9.43;51.50
10099;BME280;5089;42.656;23.374;2023-03-20T00:42:57;95113.09;;;9.38;51.36
10099;BME280;5089;42.656;23.374;2023-03-20T00:45:26;95121.38;;;9.37;51.91
10099;BME280;5089;42.656;23.374;2023-03-20T00:47:53;95000.09;;;8.51;52.36
10099;BME280;5089;42.656;23.374;2023-03-20T00:50:22;95116.53;;;9.34;52.26
10099;BME280;5089;42.656;23.374;2023-03-20T00:52:51;95118.38;;;9.28;52.08
10099;BME280;5089;42.656;23.374;2023-03-20T00:55:20;95056.84;;;8.80;52.13
10099;BME280;5089;42.656;23.374;2023-03-20T00:57:49;95108.31;;;9.09;52.68
10099;BME280;5089;42.656;23.374;2023-03-20T01:00:24;95116.47;;;8.92;52.86
10099;BME280;5089;42.656;23.374;2023-03-20T01:02:54;95067.09;;;8.56;52.54
10099;BME280;5089;42.656;23.374;2023-03-20T01:05:23;95107.78;;;8.80;53.08
10099;BME280;5089;42.656;23.374;2023-03-20T01:07:50;95073.00;;;8.58;52.91
10099;BME280;5089;42.656;23.374;2023-03-20T01:10:20;95105.53;;;8.67;52.89
10099;BME280;5089;42.656;23.374;2023-03-20T01:12:47;95059.94;;;8.35;52.90
10099;BME280;5089;42.656;23.374;2023-03-20T01:15:18;95099.78;;;8.58;53.70
10099;BME280;5089;42.656;23.374;2023-03-20T01:17:45;95064.97;;;8.32;53.87
10099;BME280;5089;42.656;23.374;2023-03-20T01:20:21;95065.16;;;8.25;53.98
10099;BME280;5089;42.656;23.374;2023-03-20T01:22:48;95108.31;;;8.50;53.98
10099;BME280;5089;42.656;23.374;2023-03-20T01:25:15;95106.75;;;8.54;54.01
10099;BME280;5089;42.656;23.374;2023-03-20T01:27:45;95099.13;;;8.46;53.88
10099;BME280;5089;42.656;23.374;2023-03-20T01:30:20;95058.69;;;8.21;53.54
10099;BME280;5089;42.656;23.374;2023-03-20T01:32:49;95056.44;;;8.13;53.42
10099;BME280;5089;42.656;23.374;2023-03-20T01:35:18;95096.81;;;8.28;53.67
10099;BME280;5089;42.656;23.374;2023-03-20T01:37:46;95083.41;;;8.28;54.16
10099;BME280;5089;42.656;23.374;2023-03-20T01:40:36;95089.94;;;8.37;53.50
10099;BME280;5089;42.656;23.374;2023-03-20T01:43:13;95058.13;;;8.19;53.04
10099;BME280;5089;42.656;23.374;2023-03-20T01:45:48;95070.50;;;8.25;52.85
10099;BME280;5089;42.656;23.374;2023-03-20T01:48:18;95092.03;;;8.30;52.73
10099;BME280;5089;42.656;23.374;2023-03-20T01:50:46;95105.72;;;8.60;52.43
10099;BME280;5089;42.656;23.374;2023-03-20T01:53:16;95034.63;;;8.26;52.02
10099;BME280;5089;42.656;23.374;2023-03-20T01:55:45;95054.28;;;8.32;51.76
10099;BME280;5089;42.656;23.374;2023-03-20T01:58:17;95113.31;;;8.68;52.14
10099;BME280;5089;42.656;23.374;2023-03-20T02:00:45;95017.38;;;8.12;51.54
10099;BME280;5089;42.656;23.374;2023-03-20T02:03:14;95100.72;;;8.69;51.64
10099;BME280;5089;42.656;23.374;2023-03-20T02:05:43;95045.50;;;8.36;52.00
10099;BME280;5089;42.656;23.374;2023-03-20T02:08:22;95104.72;;;8.66;51.74
10099;BME280;5089;42.656;23.374;2023-03-20T02:10:50;95117.91;;;8.73;52.27
10099;BME280;5089;42.656;23.374;2023-03-20T02:13:20;95099.28;;;8.61;52.44
10099;BME280;5089;42.656;23.374;2023-03-20T02:16:00;95022.09;;;8.05;52.54
10099;BME280;5089;42.656;23.374;2023-03-20T02:18:27;95108.91;;;8.57;52.52
10099;BME280;5089;42.656;23.374;2023-03-20T02:21:24;95061.06;;;8.39;52.65
10099;BME280;5089;42.656;23.374;2023-03-20T02:27:17;95096.09;;;8.38;53.49
10099;BME280;5089;42.656;23.374;2023-03-20T02:30:31;95100.16;;;8.40;53.51
10099;BME280;5089;42.656;23.374;2023-03-20T02:33:30;95104.09;;;8.33;53.66
10099;BME280;5089;42.656;23.374;2023-03-20T02:36:18;95098.25;;;8.36;53.55
10099;BME280;5089;42.656;23.374;2023-03-20T02:39:07;95067.16;;;8.13;54.07
10099;BME280;5089;42.656;23.374;2023-03-20T02:41:44;95076.13;;;8.23;53.80
10099;BME280;5089;42.656;23.374;2023-03-20T02:44:21;95099.78;;;8.32;54.24
10099;BME280;5089;42.656;23.374;2023-03-20T02:46:55;95110.31;;;8.38;54.07
10099;BME280;5089;42.656;23.374;2023-03-20T02:49:39;95100.88;;;8.31;53.69
10099;BME280;5089;42.656;23.374;2023-03-20T02:52:16;95088.16;;;8.21;54.43
10099;BME280;5089;42.656;23.374;2023-03-20T02:54:52;95044.31;;;7.79;54.38
10099;BME280;5089;42.656;23.374;2023-03-20T02:57:31;95076.41;;;7.79;55.12
10099;BME280;5089;42.656;23.374;2023-03-20T03:00:06;95041.19;;;7.65;54.45
10099;BME280;5089;42.656;23.374;2023-03-20T03:02:38;95087.34;;;7.99;54.16
10099;BME280;5089;42.656;23.374;2023-03-20T03:05:10;95088.41;;;7.98;54.52
10099;BME280;5089;42.656;23.374;2023-03-20T03:07:40;95099.19;;;8.03;54.75
10099;BME280;5089;42.656;23.374;2023-03-20T03:10:15;95087.97;;;8.06;54.88
10099;BME280;5089;42.656;23.374;2023-03-20T03:12:45;95073.91;;;7.94;55.06
10099;BME280;5089;42.656;23.374;2023-03-20T03:15:16;95071.94;;;7.84;55.21
10099;BME280;5089;42.656;23.374;2023-03-20T03:17:46;95092.88;;;7.92;55.28
10099;BME280;5089;42.656;23.374;2023-03-20T03:20:19;95065.06;;;7.71;55.70
10099;BME280;5089;42.656;23.374;2023-03-20T03:22:48;95059.19;;;7.69;55.48
10099;BME280;5089;42.656;23.374;2023-03-20T03:25:17;95078.00;;;7.80;55.13
10099;BME280;5089;42.656;23.374;2023-03-20T03:27:48;95084.94;;;7.76;55.53
10099;BME280;5089;42.656;23.374;2023-03-20T03:30:23;95085.66;;;7.71;55.43
10099;BME280;5089;42.656;23.374;2023-03-20T03:33:05;95091.22;;;7.64;55.97
10099;BME280;5089;42.656;23.374;2023-03-20T03:35:35;95090.59;;;7.57;55.68
10099;BME280;5089;42.656;23.374;2023-03-20T03:38:11;95038.97;;;7.18;55.49
10099;BME280;5089;42.656;23.374;2023-03-20T03:40:49;95060.81;;;7.32;56.34
10099;BME280;5089;42.656;23.374;2023-03-20T03:43:25;95096.59;;;7.48;56.75
10099;BME280;5089;42.656;23.374;2023-03-20T03:45:56;95067.16;;;7.26;57.13
10099;BME280;5089;42.656;23.374;2023-03-20T03:48:30;95080.81;;;7.46;56.97
10099;BME280;5089;42.656;23.374;2023-03-20T03:51:01;95051.19;;;7.31;56.56
10099;BME280;5089;42.656;23.374;2023-03-20T03:53:32;95087.34;;;7.55;56.56
10099;BME280;5089;42.656;23.374;2023-03-20T03:56:05;95092.22;;;7.58;56.59
10099;BME280;5089;42.656;23.374;2023-03-20T03:58:36;95100.47;;;7.57;56.27
10099;BME280;5089;42.656;23.374;2023-03-20T04:01:07;95077.00;;;7.42;56.40
10099;BME280;5089;42.656;23.374;2023-03-20T04:03:38;95047.94;;;7.29;55.82
10099;BME280;5089;42.656;23.374;2023-03-20T04:06:09;95083.59;;;7.56;55.95
10099;BME280;5089;42.656;23.374;2023-03-20T04:08:51;95061.88;;;7.31;55.80
10099;BME280;5089;42.656;23.374;2023-03-20T04:11:44;95076.41;;;7.57;55.24
10099;BME280;5089;42.656;23.374;2023-03-20T04:14:14;95065.38;;;7.53;55.50
10099;BME280;5089;42.656;23.374;2023-03-20T04:16:41;94991.72;;;7.02;55.15
10099;BME280;5089;42.656;23.374;2023-03-20T04:19:08;95071.50;;;7.70;54.91
10099;BME280;5089;42.656;23.374;2023-03-20T04:21:36;95071.56;;;7.76;54.76
10099;BME280;5089;42.656;23.374;2023-03-20T04:24:03;95031.91;;;7.51;54.20
10099;BME280;5089;42.656;23.374;2023-03-20T04:26:34;94960.31;;;6.93;54.75
10099;BME280;5089;42.656;23.374;2023-03-20T04:29:04;95059.41;;;7.68;54.13
10099;BME280;5089;42.656;23.374;2023-03-20T04:31:31;95067.31;;;7.80;53.99
10099;BME280;5089;42.656;23.374;2023-03-20T04:33:58;95067.81;;;7.77;54.00
10099;BME280;5089;42.656;23.374;2023-03-20T04:36:25;95091.16;;;7.81;53.72
10099;BME280;5089;42.656;23.374;2023-03-20T04:38:53;94972.88;;;7.14;54.40
10099;BME280;5089;42.656;23.374;2023-03-20T04:41:20;94967.03;;;7.17;54.33
10099;BME280;5089;42.656;23.374;2023-03-20T04:43:48;95076.41;;;7.79;54.13
10099;BME280;5089;42.656;23.374;2023-03-20T04:46:17;95011.09;;;7.31;53.92
10099;BME280;5089;42.656;23.374;2023-03-20T04:48:44;94968.53;;;7.08;53.71
10099;BME280;5089;42.656;23.374;2023-03-20T04:51:11;95061.22;;;7.62;54.26
10099;BME280;5089;42.656;23.374;2023-03-20T04:53:38;95072.56;;;7.69;53.99
10099;BME280;5089;42.656;23.374;2023-03-20T04:56:13;95092.06;;;7.92;53.67
10099;BME280;5089;42.656;23.374;2023-03-20T04:58:44;95012.13;;;7.30;54.55
10099;BME280;5089;42.656;23.374;2023-03-20T05:01:14;94998.19;;;7.06;54.55
10099;BME280;5089;42.656;23.374;2023-03-20T05:03:55;94966.03;;;7.01;54.94
10099;BME280;5089;42.656;23.374;2023-03-20T05:06:25;95077.41;;;7.72;55.04
10099;BME280;5089;42.656;23.374;2023-03-20T05:08:52;95079.53;;;7.70;55.83
10099;BME280;5089;42.656;23.374;2023-03-20T05:11:20;95087.28;;;7.72;55.49
10099;BME280;5089;42.656;23.374;2023-03-20T05:13:56;94991.03;;;7.12;55.54
10099;BME280;5089;42.656;23.374;2023-03-20T05:16:24;95126.81;;;7.87;55.71
10099;BME280;5089;42.656;23.374;2023-03-20T05:18:51;95098.31;;;7.76;55.62
10099;BME280;5089;42.656;23.374;2023-03-20T05:21:19;95058.00;;;7.60;55.85
10099;BME280;5089;42.656;23.374;2023-03-20T05:23:46;95088.44;;;7.76;55.94
10099;BME280;5089;42.656;23.374;2023-03-20T05:26:13;95029.38;;;7.39;55.54
10099;BME280;5089;42.656;23.374;2023-03-20T05:28:41;95078.22;;;7.73;56.10
10099;BME280;5089;42.656;23.374;2023-03-20T05:31:22;95108.22;;;7.97;55.70
10099;BME280;5089;42.656;23.374;2023-03-20T05:33:49;95048.41;;;7.64;55.90
10099;BME280;5089;42.656;23.374;2023-03-20T05:36:16;95130.69;;;8.17;56.18
10099;BME280;5089;42.656;23.374;2023-03-20T05:38:46;95123.59;;;8.28;55.75
10099;BME280;5089;42.656;23.374;2023-03-20T05:41:13;95087.28;;;8.15;55.57
10099;BME280;5089;42.656;23.374;2023-03-20T05:43:40;95080.31;;;8.14;55.57
10099;BME280;5089;42.656;23.374;2023-03-20T05:46:07;95119.88;;;8.56;55.18
10099;BME280;5089;42.656;23.374;2023-03-20T05:48:34;95020.59;;;8.14;54.83
10099;BME280;5089;42.656;23.374;2023-03-20T05:51:01;95118.84;;;8.89;54.13
10099;BME280;5089;42.656;23.374;2023-03-20T05:53:28;95090.13;;;8.84;54.10
10099;BME280;5089;42.656;23.374;2023-03-20T05:55:56;95135.19;;;9.19;53.68
10099;BME280;5089;42.656;23.374;2023-03-20T05:58:24;95110.19;;;9.13;53.58
10099;BME280;5089;42.656;23.374;2023-03-20T06:00:51;95071.97;;;8.91;52.97
10099;BME280;5089;42.656;23.374;2023-03-20T06:03:18;95116.81;;;9.37;51.85
10099;BME280;5089;42.656;23.374;2023-03-20T06:05:45;95046.59;;;9.04;51.44
10099;BME280;5089;42.656;23.374;2023-03-20T06:08:15;95084.94;;;9.46;51.66
10099;BME280;5089;42.656;23.374;2023-03-20T06:10:42;95088.00;;;9.60;51.82
10099;BME280;5089;42.656;23.374;2023-03-20T06:13:11;95081.28;;;9.57;52.11
10099;BME280;5089;42.656;23.374;2023-03-20T06:15:38;95058.47;;;9.55;51.28
10099;BME280;5089;42.656;23.374;2023-03-20T06:18:06;95116.41;;;10.08;51.19
10099;BME280;5089;42.656;23.374;2023-03-20T06:20:34;95091.72;;;10.06;51.58
10099;BME280;5089;42.656;23.374;2023-03-20T06:23:01;95115.75;;;10.37;51.11
10099;BME280;5089;42.656;23.374;2023-03-20T06:25:28;95104.75;;;10.44;50.82
10099;BME280;5089;42.656;23.374;2023-03-20T06:27:55;95110.19;;;11.55;99.80
10099;BME280;5089;42.656;23.374;2023-03-20T06:30:25;95114.63;;;12.79;99.49
10099;BME280;5089;42.656;23.374;2023-03-20T06:32:52;95114.84;;;13.27;54.77
10099;BME280;5089;42.656;23.374;2023-03-20T06:37:56;95045.91;;;12.66;48.62
10099;BME280;5089;42.656;23.374;2023-03-20T06:40:39;95037.16;;;12.46;50.15
10099;BME280;5089;42.656;23.374;2023-03-20T06:43:22;95064.16;;;12.41;50.46
10099;BME280;5089;42.656;23.374;2023-03-20T06:54:37;95129.91;;;12.45;51.31
10099;BME280;5089;42.656;23.374;2023-03-20T06:57:08;95093.31;;;12.29;52.26
10099;BME280;5089;42.656;23.374;2023-03-20T06:59:47;95012.66;;;11.93;52.98
10099;BME280;5089;42.656;23.374;2023-03-20T07:02:14;95067.41;;;12.38;54.12
10099;BME280;5089;42.656;23.374;2023-03-20T07:04:42;94989.72;;;12.01;51.54
10099;BME280;5089;42.656;23.374;2023-03-20T07:07:11;94977.84;;;12.07;51.02
10099;BME280;5089;42.656;23.374;2023-03-20T07:10:03;94980.75;;;12.16;49.33
10099;BME280;5089;42.656;23.374;2023-03-20T07:12:44;95056.22;;;12.59;47.28
10099;BME280;5089;42.656;23.374;2023-03-20T07:15:16;95029.63;;;12.43;47.41
10099;BME280;5089;42.656;23.374;2023-03-20T07:17:43;95085.97;;;12.88;49.07
10099;BME280;5089;42.656;23.374;2023-03-20T07:20:15;94997.66;;;12.26;47.81
10099;BME280;5089;42.656;23.374;2023-03-20T07:22:56;95052.44;;;12.60;46.42
10099;BME280;5089;42.656;23.374;2023-03-20T07:25:45;94993.00;;;12.37;48.62
10099;BME280;5089;42.656;23.374;2023-03-20T07:28:14;94982.22;;;12.37;51.88
10099;BME280;5089;42.656;23.374;2023-03-20T07:33:29;95032.41;;;13.10;49.84
10099;BME280;5089;42.656;23.374;2023-03-20T07:35:57;95088.13;;;13.59;50.55
10099;BME280;5089;42.656;23.374;2023-03-20T07:38:25;95072.44;;;13.61;47.04
10099;BME280;5089;42.656;23.374;2023-03-20T07:40:54;94975.19;;;13.08;46.42
10099;BME280;5089;42.656;23.374;2023-03-20T07:43:22;95020.13;;;13.52;47.80
10099;BME280;5089;42.656;23.374;2023-03-20T07:45:50;95006.78;;;13.37;46.76
10099;BME280;5089;42.656;23.374;2023-03-20T07:48:18;94975.06;;;13.24;46.52
10099;BME280;5089;42.656;23.374;2023-03-20T07:50:46;95043.78;;;13.89;46.55
10099;BME280;5089;42.656;23.374;2023-03-20T07:53:14;95010.66;;;13.78;46.30
10099;BME280;5089;42.656;23.374;2023-03-20T07:55:43;95041.97;;;14.03;46.39
10099;BME280;5089;42.656;23.374;2023-03-20T07:58:12;95052.16;;;14.11;46.97
10099;BME280;5089;42.656;23.374;2023-03-20T08:00:40;95070.09;;;14.49;48.92
10099;BME280;5089;42.656;23.374;2023-03-20T08:03:17;94980.69;;;13.98;45.16
10099;BME280;5089;42.656;23.374;2023-03-20T08:05:46;95037.63;;;14.49;46.93
10099;BME280;5089;42.656;23.374;2023-03-20T08:08:13;95060.28;;;14.72;43.23
10099;BME280;5089;42.656;23.374;2023-03-20T08:10:43;95099.34;;;15.03;44.15
10099;BME280;5089;42.656;23.374;2023-03-20T08:13:17;95025.88;;;14.59;44.67
10099;BME280;5089;42.656;23.374;2023-03-20T08:15:45;95031.19;;;14.64;43.67
10099;BME280;5089;42.656;23.374;2023-03-20T08:18:13;95011.16;;;14.65;44.13
10099;BME280;5089;42.656;23.374;2023-03-20T08:20:57;95034.84;;;14.92;44.57
10099;BME280;5089;42.656;23.374;2023-03-20T08:28:55;94978.63;;;15.02;42.34
10099;BME280;5089;42.656;23.374;2023-03-20T08:31:24;95095.66;;;16.10;41.86
10099;BME280;5089;42.656;23.374;2023-03-20T08:33:58;94994.03;;;15.53;42.71
10099;BME280;5089;42.656;23.374;2023-03-20T08:36:37;95100.88;;;16.20;40.84
10099;BME280;5089;42.656;23.374;2023-03-20T08:44:35;95098.28;;;16.69;40.02
10099;BME280;5089;42.656;23.374;2023-03-20T08:47:03;95084.97;;;16.81;41.85
10099;BME280;5089;42.656;23.374;2023-03-20T08:49:31;95082.94;;;17.00;40.04
10099;BME280;5089;42.656;23.374;2023-03-20T08:51:58;95088.81;;;17.38;39.47
10099;BME280;5089;42.656;23.374;2023-03-20T08:54:33;95018.69;;;17.18;38.35
10099;BME280;5089;42.656;23.374;2023-03-20T08:57:00;95081.69;;;17.65;37.05
10099;BME280;5089;42.656;23.374;2023-03-20T08:59:27;95067.97;;;17.70;37.18
10099;BME280;5089;42.656;23.374;2023-03-20T09:01:57;94991.16;;;17.11;36.88
10099;BME280;5089;42.656;23.374;2023-03-20T09:04:24;95055.47;;;17.69;37.54
10099;BME280;5089;42.656;23.374;2023-03-20T09:06:52;95086.34;;;17.95;37.10
10099;BME280;5089;42.656;23.374;2023-03-20T09:09:19;95077.13;;;18.13;36.69
10099;BME280;5089;42.656;23.374;2023-03-20T09:11:53;95064.53;;;18.26;35.60
10099;BME280;5089;42.656;23.374;2023-03-20T09:14:21;95046.97;;;18.40;35.32
10099;BME280;5089;42.656;23.374;2023-03-20T09:16:48;95070.69;;;18.48;35.14
10099;BME280;5089;42.656;23.374;2023-03-20T09:19:17;95010.09;;;18.17;34.93
10099;BME280;5089;42.656;23.374;2023-03-20T09:21:44;95077.31;;;18.64;35.20
10099;BME280;5089;42.656;23.374;2023-03-20T09:24:11;95038.91;;;18.83;35.53
10099;BME280;5089;42.656;23.374;2023-03-20T09:26:38;95051.41;;;19.10;33.42
10099;BME280;5089;42.656;23.374;2023-03-20T09:29:05;95051.75;;;19.17;33.62
10099;BME280;5089;42.656;23.374;2023-03-20T09:31:32;95051.72;;;19.34;34.70
10099;BME280;5089;42.656;23.374;2023-03-20T09:33:59;95038.41;;;19.58;33.76
10099;BME280;5089;42.656;23.374;2023-03-20T09:36:27;95026.31;;;19.94;32.72
10099;BME280;5089;42.656;23.374;2023-03-20T09:38:54;94970.06;;;19.72;31.71
10099;BME280;5089;42.656;23.374;2023-03-20T09:41:23;95043.16;;;20.42;31.55
10099;BME280;5089;42.656;23.374;2023-03-20T09:43:59;95026.03;;;20.16;31.29
10099;BME280;5089;42.656;23.374;2023-03-20T09:46:40;95034.34;;;20.37;31.93
10099;BME280;5089;42.656;23.374;2023-03-20T09:49:23;95011.13;;;20.51;31.46
10099;BME280;5089;42.656;23.374;2023-03-20T09:51:57;94937.56;;;20.25;33.72
10099;BME280;5089;42.656;23.374;2023-03-20T09:54:27;95001.03;;;20.93;31.92
10099;BME280;5089;42.656;23.374;2023-03-20T09:56:56;95005.91;;;21.29;30.79
10099;BME280;5089;42.656;23.374;2023-03-20T09:59:24;94922.59;;;20.94;29.84
10099;BME280;5089;42.656;23.374;2023-03-20T10:01:54;94942.00;;;21.33;29.47
10099;BME280;5089;42.656;23.374;2023-03-20T10:04:22;94962.91;;;21.50;28.97
10099;BME280;5089;42.656;23.374;2023-03-20T10:06:51;94978.31;;;21.67;29.83
10099;BME280;5089;42.656;23.374;2023-03-20T10:09:22;94973.00;;;21.82;29.20
10099;BME280;5089;42.656;23.374;2023-03-20T10:12:02;94956.50;;;21.46;29.15
10099;BME280;5089;42.656;23.374;2023-03-20T10:14:45;94898.09;;;20.97;29.26
10099;BME280;5089;42.656;23.374;2023-03-20T10:17:37;94918.19;;;20.80;29.27
10099;BME280;5089;42.656;23.374;2023-03-20T10:20:11;94962.16;;;21.29;29.56
10099;BME280;5089;42.656;23.374;2023-03-20T10:22:42;94962.91;;;21.50;29.59
10099;BME280;5089;42.656;23.374;2023-03-20T10:25:22;94933.59;;;21.39;29.60
10099;BME280;5089;42.656;23.374;2023-03-20T10:27:53;94873.19;;;21.31;29.19
10099;BME280;5089;42.656;23.374;2023-03-20T10:30:45;94932.06;;;21.86;29.02
10099;BME280;5089;42.656;23.374;2023-03-20T10:33:30;94838.75;;;21.18;28.37
10099;BME280;5089;42.656;23.374;2023-03-20T10:36:09;94927.84;;;21.76;28.53
10099;BME280;5089;42.656;23.374;2023-03-20T10:38:44;94942.38;;;22.01;27.81
10099;BME280;5089;42.656;23.374;2023-03-20T10:41:18;94823.72;;;21.12;28.15
10099;BME280;5089;42.656;23.374;2023-03-20T10:43:48;94913.34;;;21.76;28.42
10099;BME280;5089;42.656;23.374;2023-03-20T10:46:19;94890.00;;;21.78;27.98
10099;BME280;5089;42.656;23.374;2023-03-20T10:48:50;94872.09;;;21.69;28.11
10099;BME280;5089;42.656;23.374;2023-03-20T10:51:39;94869.50;;;21.84;28.21
10099;BME280;5089;42.656;23.374;2023-03-20T10:54:20;94843.84;;;22.01;27.32
10099;BME280;5089;42.656;23.374;2023-03-20T10:56:58;94798.13;;;21.90;27.47
10099;BME280;5089;42.656;23.374;2023-03-20T10:59:31;94909.56;;;22.77;27.42
10099;BME280;5089;42.656;23.374;2023-03-20T11:01:59;94901.72;;;22.91;28.02
10099;BME280;5089;42.656;23.374;2023-03-20T11:04:26;94887.59;;;22.89;27.17
10099;BME280;5089;42.656;23.374;2023-03-20T11:06:59;94904.97;;;23.09;26.53
10099;BME280;5089;42.656;23.374;2023-03-20T11:09:28;94813.81;;;22.57;32.07
10099;BME280;5089;42.656;23.374;2023-03-20T11:12:01;94880.22;;;23.06;39.67
10099;BME280;5089;42.656;23.374;2023-03-20T11:14:32;94832.38;;;22.75;31.43
10099;BME280;5089;42.656;23.374;2023-03-20T11:17:01;94855.59;;;22.93;31.62
10099;BME280;5089;42.656;23.374;2023-03-20T11:19:32;94848.31;;;22.85;26.33
10099;BME280;5089;42.656;23.374;2023-03-20T11:22:06;94864.56;;;22.78;26.85
10099;BME280;5089;42.656;23.374;2023-03-20T11:24:36;94865.34;;;22.79;27.34
10099;BME280;5089;42.656;23.374;2023-03-20T11:27:09;94858.63;;;22.64;27.28
10099;BME280;5089;42.656;23.374;2023-03-20T11:29:36;94843.03;;;22.65;27.17
10099;BME280;5089;42.656;23.374;2023-03-20T11:34:44;94791.66;;;22.22;27.18
10099;BME280;5089;42.656;23.374;2023-03-20T11:37:22;94816.59;;;22.45;26.98
10099;BME280;5089;42.656;23.374;2023-03-20T11:39:56;94847.94;;;22.59;26.97
10099;BME280;5089;42.656;23.374;2023-03-20T11:42:26;94839.19;;;22.41;26.28
10099;BME280;5089;42.656;23.374;2023-03-20T11:45:02;94849.94;;;22.34;26.52
10099;BME280;5089;42.656;23.374;2023-03-20T11:47:32;94738.63;;;21.62;26.56
10099;BME280;5089;42.656;23.374;2023-03-20T11:50:03;94828.63;;;22.16;26.30
10099;BME280;5089;42.656;23.374;2023-03-20T11:52:32;94798.00;;;21.98;26.72
10099;BME280;5089;42.656;23.374;2023-03-20T11:55:01;94827.28;;;22.10;26.70
10099;BME280;5089;42.656;23.374;2023-03-20T11:57:42;94816.84;;;22.00;26.65
10099;BME280;5089;42.656;23.374;2023-03-20T12:00:17;94820.25;;;21.97;26.79
10099;BME280;5089;42.656;23.374;2023-03-20T12:02:45;94813.41;;;21.91;26.59
10099;BME280;5089;42.656;23.374;2023-03-20T12:05:22;94745.25;;;21.49;26.23
10099;BME280;5089;42.656;23.374;2023-03-20T12:08:02;94727.03;;;21.41;26.31
10099;BME280;5089;42.656;23.374;2023-03-20T12:10:35;94752.31;;;21.62;26.05
10099;BME280;5089;42.656;23.374;2023-03-20T12:13:11;94760.97;;;21.64;26.55
10099;BME280;5089;42.656;23.374;2023-03-20T12:15:41;94769.66;;;21.66;25.85
10099;BME280;5089;42.656;23.374;2023-03-20T12:18:13;94777.03;;;21.78;25.58
10099;BME280;5089;42.656;23.374;2023-03-20T12:21:02;94763.47;;;21.69;25.00
10099;BME280;5089;42.656;23.374;2023-03-20T12:23:46;94748.09;;;21.65;24.92
10099;BME280;5089;42.656;23.374;2023-03-20T12:26:32;94787.41;;;21.84;25.04
10099;BME280;5089;42.656;23.374;2023-03-20T12:35:23;94777.16;;;21.81;24.69
10099;BME280;5089;42.656;23.374;2023-03-20T12:37:53;94767.59;;;21.75;25.13
10099;BME280;5089;42.656;23.374;2023-03-20T12:40:27;94668.84;;;21.16;25.56
10099;BME280;5089;42.656;23.374;2023-03-20T12:43:02;94747.84;;;21.70;24.80
10099;BME280;5089;42.656;23.374;2023-03-20T12:45:37;94747.06;;;21.69;24.97
10099;BME280;5089;42.656;23.374;2023-03-20T12:51:01;94729.97;;;21.72;24.50
10099;BME280;5089;42.656;23.374;2023-03-20T12:53:43;94743.72;;;21.88;24.36
10099;BME280;5089;42.656;23.374;2023-03-20T12:56:24;94739.72;;;21.85;24.45
10099;BME280;5089;42.656;23.374;2023-03-20T12:58:58;94698.06;;;21.64;24.32
10099;BME280;5089;42.656;23.374;2023-03-20T13:01:30;94736.31;;;21.88;23.87
10099;BME280;5089;42.656;23.374;2023-03-20T13:07:16;94736.44;;;21.80;23.75
10099;BME280;5089;42.656;23.374;2023-03-20T13:09:54;94701.47;;;21.61;23.95
10099;BME280;5089;42.656;23.374;2023-03-20T13:12:38;94745.19;;;21.85;23.06
10099;BME280;5089;42.656;23.374;2023-03-20T13:15:18;94651.75;;;21.31;22.80
10099;BME280;5089;42.656;23.374;2023-03-20T13:17:51;94740.41;;;21.82;22.75
10099;BME280;5089;42.656;23.374;2023-03-20T13:20:24;94635.69;;;21.30;22.16
10099;BME280;5089;42.656;23.374;2023-03-20T13:23:02;94596.63;;;21.05;22.50
10099;BME280;5089;42.656;23.374;2023-03-20T13:25:41;94671.53;;;21.53;22.31
10099;BME280;5089;42.656;23.374;2023-03-20T13:28:14;94683.69;;;21.67;22.42
10099;BME280;5089;42.656;23.374;2023-03-20T13:33:25;94654.69;;;21.51;22.54
10099;BME280;5089;42.656;23.374;2023-03-20T13:35:59;94694.81;;;21.86;22.68
10099;BME280;5089;42.656;23.374;2023-03-20T13:38:37;94680.72;;;21.72;22.78
10099;BME280;5089;42.656;23.374;2023-03-20T13:41:09;94684.56;;;21.83;22.52
10099;BME280;5089;42.656;23.374;2023-03-20T13:43:40;94670.81;;;21.68;21.89
10099;BME280;5089;42.656;23.374;2023-03-20T13:46:11;94680.72;;;21.72;21.85
10099;BME280;5089;42.656;23.374;2023-03-20T13:48:45;94661.59;;;21.60;21.88
10099;BME280;5089;42.656;23.374;2023-03-20T13:51:22;94682.31;;;21.73;21.79
10099;BME280;5089;42.656;23.374;2023-03-20T13:54:04;94665.22;;;21.64;22.01
10099;BME280;5089;42.656;23.374;2023-03-20T13:56:39;94634.50;;;21.43;21.98
10099;BME280;5089;42.656;23.374;2023-03-20T13:59:33;94662.31;;;21.57;21.95
10099;BME280;5089;42.656;23.374;2023-03-20T14:02:15;94528.69;;;20.79;22.44
10099;BME280;5089;42.656;23.374;2023-03-20T14:04:51;94638.75;;;21.41;23.13
10099;BME280;5089;42.656;23.374;2023-03-20T14:07:27;94659.88;;;21.68;22.87
10099;BME280;5089;42.656;23.374;2023-03-20T14:09:55;94665.00;;;21.69;23.02
10099;BME280;5089;42.656;23.374;2023-03-20T14:12:24;94596.66;;;21.17;22.84
10099;BME280;5089;42.656;23.374;2023-03-20T14:14:54;94657.25;;;21.71;22.63
10099;BME280;5089;42.656;23.374;2023-03-20T14:17:24;94591.25;;;21.33;22.92